Historyczne dane pomiarowe

Dodano dane terminowe – wersja testowa.

Dane z okresu 1951-2019

Wersja bazy: 1.34 [2019-03-16, lista zmian], aktualizacja planowana na 2019-04-15

Dane meteo z obszaru Polski uzyskane na podstawie danych udostępnionych przez Instytut Meteorologii i Gospodarki Wodnej – Państwowy Instytut Badawczy.

 

Wybierz Datę:    

       

TemperaturaWilgotnośćWiatrCiśnienieOpadyŚniegCzas trwania zjawisk
 Stacja t tx tn tng RH VA  wxwx mslp ppp RRR   cm mm wxwxwxwxwxwxwx
1952-02-15 -5.6 -4.4 -7.6 -5.9 93.5- 8.0 1.3---- 15.6-- 81---------
1952-02-16 -5.5 -1.9 -7.7 -7.2 93.0- 8.0 0.0---- 3.5-- 87---------
1952-02-17 -6.4 -4.6 -7.6 -7.7 88.3- 8.0 0.3---- 4.1-- 83---------
1952-02-18 -6.1 -4.1 -7.6 -7.7 92.5- 8.0 0.0---- 5.6-- 86---------
1952-02-19 -7.0 -3.7 -8.3 -8.2 87.8- 8.0 1.3---- 0.7-- 96---------
1952-02-20 -5.4 -4.1 -8.1 -8.9 92.8- 8.0 1.7---- 5.6-- 95---------
1952-02-21 -2.4 -0.1-13.3-19.7 89.0- 6.7 3.7---- 14.7--103---------
1952-02-22 1.0 1.6 -0.8 -1.0 92.5- 8.0 5.0---- 6.7--100---------
1952-02-23 0.4 1.6 -0.9 -1.1 88.0- 8.0 5.0---- 2.0-- 91---------
1952-02-24 -1.8 1.6 -3.6 -0.1 88.5- 6.7 0.7---- 1.3-- 88---------
1952-02-25 -2.4 0.4 -4.6 -6.2 80.5- 7.7 0.0---- 0.0-- 84---------
1952-02-26 -2.8 -1.0 -6.8 -6.8 86.0- 8.0 0.7---- 6.4-- 81---------
1952-02-27 -2.2 -0.7 -3.0 -1.9 92.5- 7.3 0.7---- 1.9-- 94---------
1952-02-28 -3.8 -2.1 -6.3 -5.6 87.8- 7.7 1.3---- 4.4-- 90---------
1952-02-29 -1.9 0.4 -4.0 -8.9 87.8- 8.0 0.7---- 1.3-- 97---------
1952-03-01 -3.8 -1.5 -5.6 -3.6 92.0- 8.0 4.3---- 8.9-- 92---------
1952-03-02 -6.4 -3.5-14.0-14.0 67.5- 7.3 2.0---- 0.7--102---------
1952-03-03 1.3 2.9 -5.0 -5.8 87.5- 8.0 2.3---- 0.2-- 98---------
1952-03-04 -7.1 2.6-14.2 0.6 90.8- 5.3 0.7---- 2.1-- 87---------
1952-03-05-12.8 -7.7-19.7-26.4 88.0- 5.3 0.7---- 3.7-- 85---------
1952-03-06-12.6-10.2-15.7-15.9 87.0- 8.0 1.0---- 7.8-- 86---------
1952-03-07-11.5 -9.7-14.7-15.0 83.5- 8.0 1.0---- 1.4-- 98---------
1952-03-08-12.2 -2.1-17.8-18.3 87.0- 1.3 1.0---- 0.0-- 98---------
1952-03-09 -9.8 1.0-18.7-24.9 80.5- 0.0 0.0---- 0.0-- 94---------
1952-03-10 -7.1 2.7-16.2-22.5 68.8- 0.0 1.0---- 0.0-- 92---------
1952-03-11 -7.5 3.1-15.6-21.7 71.0- 0.0 0.7---- 0.0-- 88---------
1952-03-12 -4.7 2.4-15.0-21.5 73.5- 3.7 0.7---- 0.0-- 83---------
1952-03-13 -3.1 1.4-10.1-16.5 83.3- 6.7 1.7---- 5.9-- 82---------
1952-03-14 -8.6 -1.5-10.7 -6.3 84.0- 7.7 0.7---- 4.0-- 97---------
1952-03-15-14.1 -3.5-23.4-27.2 76.0- 0.3 0.7---- 0.0--102---------
137.6 ms

 

Źródłem pochodzenia danych jest Instytut Meteorologii i Gospodarki Wodnej – Państwowy Instytut Badawczy. Dane Instytutu Meteorologii i Gospodarki Wodnej – Państwowego Instytutu Badawczego zostały przetworzone.

Dane źródłowe można odnaleźć na stronie https://dane.imgw.pl